createdAt,value
2019-04-04T00:01:59.211Z,26.80
2019-04-04T00:04:26.542Z,26.70
2019-04-04T00:06:53.594Z,26.70
2019-04-04T00:09:21.896Z,26.70
2019-04-04T00:11:48.723Z,26.70
2019-04-04T00:14:15.594Z,26.70
2019-04-04T00:16:42.423Z,26.60
2019-04-04T00:19:09.254Z,26.40
2019-04-04T00:21:36.095Z,26.40
2019-04-04T00:24:02.929Z,26.40
2019-04-04T00:26:29.775Z,26.40
2019-04-04T00:28:56.632Z,26.40
2019-04-04T00:31:23.451Z,26.40
2019-04-04T00:33:50.186Z,26.40
2019-04-04T00:36:17.036Z,26.30
2019-04-04T00:38:43.889Z,26.30
2019-04-04T00:41:11.045Z,26.30
2019-04-04T00:43:39.195Z,26.30
2019-04-04T00:46:06.244Z,26.30
2019-04-04T00:48:34.181Z,26.30
2019-04-04T00:51:01.565Z,26.30
2019-04-04T00:53:28.409Z,26.30
2019-04-04T00:55:55.250Z,26.30
2019-04-04T00:58:22.092Z,26.30
2019-04-04T01:00:48.997Z,26.30
2019-04-04T01:03:15.775Z,26.30
2019-04-04T01:05:42.622Z,26.30
2019-04-04T01:08:09.615Z,26.20
2019-04-04T01:10:36.344Z,26.20
2019-04-04T01:13:03.146Z,26.20
2019-04-04T01:15:31.206Z,26.20
2019-04-04T01:17:58.466Z,26.10
2019-04-04T01:20:25.200Z,26.10
2019-04-04T01:22:52.248Z,26.10
2019-04-04T01:25:19.095Z,26.10
2019-04-04T01:27:45.929Z,26.10
2019-04-04T01:30:12.797Z,26.10
2019-04-04T01:32:39.799Z,26.10
2019-04-04T01:35:06.558Z,26.10
2019-04-04T01:37:33.402Z,26.00
2019-04-04T01:40:02.258Z,26.00
2019-04-04T01:42:28.727Z,26.00
2019-04-04T01:44:55.531Z,25.90
2019-04-04T01:47:22.303Z,26.00
2019-04-04T01:49:49.962Z,26.00
2019-04-04T01:52:17.611Z,26.00
2019-04-04T01:54:44.369Z,26.00
2019-04-04T01:57:11.212Z,26.00
2019-04-04T01:59:38.051Z,25.90
2019-04-04T02:02:04.996Z,25.90
2019-04-04T02:04:31.739Z,25.90
2019-04-04T02:06:59.135Z,25.80
2019-04-04T02:09:26.412Z,25.80
2019-04-04T02:11:53.187Z,25.80
2019-04-04T02:14:20.035Z,25.70
2019-04-04T02:16:50.919Z,25.80
2019-04-04T02:19:15.446Z,25.70
2019-04-04T02:21:42.286Z,25.70
2019-04-04T02:24:09.127Z,25.60
2019-04-04T02:26:36.611Z,25.50
2019-04-04T02:29:03.730Z,25.50
2019-04-04T02:31:30.472Z,25.50
2019-04-04T02:33:57.249Z,25.50
2019-04-04T02:36:24.259Z,25.50
2019-04-04T02:38:51.103Z,25.40
2019-04-04T02:41:17.962Z,25.40
2019-04-04T02:43:45.100Z,25.40
2019-04-04T02:46:12.415Z,25.30
2019-04-04T02:48:39.285Z,25.20
2019-04-04T02:51:08.019Z,25.10
2019-04-04T02:53:34.609Z,25.10
2019-04-04T02:56:03.360Z,25.10
2019-04-04T02:58:29.930Z,25.10
2019-04-04T03:00:59.644Z,25.10
2019-04-04T03:03:25.151Z,25.10
2019-04-04T03:05:52.396Z,25.10
2019-04-04T03:08:19.166Z,25.20
2019-04-04T03:10:49.257Z,25.20
2019-04-04T03:13:14.326Z,25.10
2019-04-04T03:15:42.005Z,25.10
2019-04-04T03:18:09.416Z,25.10
2019-04-04T03:20:36.193Z,25.10
2019-04-04T03:23:02.923Z,25.10
2019-04-04T03:25:29.649Z,25.20
2019-04-04T03:27:58.305Z,25.20
2019-04-04T03:30:24.807Z,25.20
2019-04-04T03:32:54.390Z,25.20
2019-04-04T03:35:25.762Z,25.20
2019-04-04T03:37:48.327Z,25.30
2019-04-04T03:40:15.066Z,25.20
2019-04-04T03:42:44.281Z,25.20
2019-04-04T03:45:10.200Z,25.20
2019-04-04T03:47:36.975Z,25.30
2019-04-04T03:50:03.717Z,25.30
2019-04-04T03:52:30.435Z,25.30
2019-04-04T03:54:57.232Z,25.30
2019-04-04T03:57:24.060Z,25.30
2019-04-04T03:59:50.817Z,25.20
2019-04-04T04:02:18.633Z,25.30
2019-04-04T04:04:45.613Z,25.20
2019-04-04T04:07:15.036Z,25.20
2019-04-04T04:09:40.953Z,25.20
2019-04-04T04:12:11.128Z,25.20
2019-04-04T04:14:36.261Z,25.20
2019-04-04T04:17:02.981Z,25.20
2019-04-04T04:19:31.392Z,25.10
2019-04-04T04:21:58.226Z,25.10
2019-04-04T04:24:26.795Z,25.10
2019-04-04T04:26:53.388Z,25.10
2019-04-04T04:29:20.122Z,25.10
2019-04-04T04:31:49.196Z,25.10
2019-04-04T04:34:15.261Z,25.10
2019-04-04T04:36:41.985Z,25.10
2019-04-04T04:39:08.720Z,25.10
2019-04-04T04:41:35.689Z,25.10
2019-04-04T04:44:02.834Z,25.10
2019-04-04T04:46:30.803Z,25.10
2019-04-04T04:48:57.580Z,25.10
2019-04-04T04:51:24.312Z,25.10
2019-04-04T04:53:51.313Z,25.20
2019-04-04T04:56:18.346Z,25.20
2019-04-04T04:58:44.986Z,25.20
2019-04-04T05:01:11.732Z,25.20
2019-04-04T05:03:38.534Z,25.20
2019-04-04T05:06:05.264Z,25.30
2019-04-04T05:08:31.990Z,25.30
2019-04-04T05:10:58.787Z,25.40
2019-04-04T05:13:28.709Z,25.50
2019-04-04T05:15:53.890Z,25.60
2019-04-04T05:18:20.666Z,25.70
2019-04-04T05:20:47.388Z,25.70
2019-04-04T05:23:15.601Z,25.80
2019-04-04T05:25:52.116Z,25.80
2019-04-04T05:28:11.478Z,25.90
2019-04-04T05:30:38.255Z,26.00
2019-04-04T05:33:05.028Z,26.00
2019-04-04T05:35:33.393Z,26.10
2019-04-04T05:38:00.134Z,26.00
2019-04-04T05:40:26.949Z,26.10
2019-04-04T05:42:53.684Z,26.20
2019-04-04T05:45:20.424Z,26.30
2019-04-04T05:47:47.212Z,26.50
2019-04-04T05:50:16.313Z,26.70
2019-04-04T05:52:42.318Z,26.80
2019-04-04T05:55:10.847Z,26.70
2019-04-04T05:57:37.662Z,26.80
2019-04-04T06:00:04.395Z,26.90
2019-04-04T06:02:31.240Z,27.00
2019-04-04T06:04:57.977Z,27.30
2019-04-04T06:07:24.702Z,27.60
2019-04-04T06:09:51.498Z,27.80
2019-04-04T06:12:18.233Z,28.10
2019-04-04T06:14:46.105Z,28.40
2019-04-04T06:17:12.972Z,28.80
2019-04-04T06:19:39.691Z,29.10
2019-04-04T06:22:06.418Z,29.40
2019-04-04T06:24:33.203Z,29.50
2019-04-04T06:26:59.972Z,29.60
2019-04-04T06:29:26.689Z,29.50
2019-04-04T06:31:53.480Z,29.70
2019-04-04T06:34:20.218Z,30.00
2019-04-04T06:36:47.002Z,30.30
2019-04-04T06:39:15.381Z,30.60
2019-04-04T06:41:42.104Z,30.90
2019-04-04T06:44:08.860Z,31.40
2019-04-04T06:46:35.613Z,31.80
2019-04-04T06:49:04.239Z,32.20
2019-04-04T06:51:30.731Z,32.60
2019-04-04T06:53:59.536Z,32.90
2019-04-04T06:56:25.882Z,33.10
2019-04-04T06:58:52.613Z,33.40
2019-04-04T07:01:21.980Z,33.60
2019-04-04T07:03:48.396Z,33.70
2019-04-04T07:06:15.474Z,33.90
2019-04-04T07:08:42.274Z,34.10
2019-04-04T07:11:21.046Z,34.20
2019-04-04T07:13:42.676Z,34.40
2019-04-04T07:16:07.972Z,34.40
2019-04-04T07:18:34.402Z,34.50
2019-04-04T07:21:03.482Z,34.50
2019-04-04T07:23:29.614Z,34.50
2019-04-04T07:25:56.337Z,34.50
2019-04-04T07:28:23.070Z,34.50
2019-04-04T07:30:50.016Z,34.40
2019-04-04T07:33:16.806Z,34.50
2019-04-04T07:35:43.498Z,34.60
2019-04-04T07:38:10.292Z,34.60
2019-04-04T07:40:37.377Z,34.60
2019-04-04T07:43:04.144Z,34.60
2019-04-04T07:45:30.929Z,34.50
2019-04-04T07:47:57.655Z,34.50
2019-04-04T07:50:26.282Z,34.60
2019-04-04T07:52:52.810Z,34.70
2019-04-04T07:55:19.554Z,35.00
2019-04-04T07:57:46.334Z,35.20
2019-04-04T08:00:13.096Z,35.20
2019-04-04T08:02:39.827Z,35.10
2019-04-04T08:05:06.568Z,35.10
2019-04-04T08:07:33.354Z,35.00
2019-04-04T08:10:00.084Z,34.70
2019-04-04T08:12:26.829Z,34.70
2019-04-04T08:14:53.627Z,34.50
2019-04-04T08:17:20.344Z,34.30
2019-04-04T08:19:58.923Z,34.20
2019-04-04T08:22:15.671Z,34.10
2019-04-04T08:24:42.464Z,33.60
2019-04-04T08:27:09.198Z,33.50
2019-04-04T08:29:35.977Z,33.20
2019-04-04T08:32:02.705Z,33.00
2019-04-04T08:34:29.434Z,33.00
2019-04-04T08:36:56.222Z,33.20
2019-04-04T08:39:22.962Z,33.20
2019-04-04T08:41:52.266Z,33.30
2019-04-04T08:44:18.291Z,33.30
2019-04-04T08:46:44.970Z,33.50
2019-04-04T08:49:11.711Z,33.70
2019-04-04T08:51:38.517Z,33.90
2019-04-04T08:54:05.245Z,34.10
2019-04-04T08:56:31.979Z,34.50
2019-04-04T08:58:58.788Z,34.80
2019-04-04T09:01:25.642Z,35.10
2019-04-04T09:03:52.332Z,35.20
2019-04-04T09:06:19.685Z,35.20
2019-04-04T09:08:46.444Z,35.20
2019-04-04T09:11:13.747Z,35.40
2019-04-04T09:13:40.547Z,35.50
2019-04-04T09:16:07.279Z,35.80
2019-04-04T09:18:34.014Z,36.20
2019-04-04T09:21:00.810Z,36.60
2019-04-04T09:23:27.554Z,37.10
2019-04-04T09:26:05.050Z,37.60
2019-04-04T09:28:22.776Z,37.90
2019-04-04T09:30:49.504Z,38.50
2019-04-04T09:33:16.216Z,39.00
2019-04-04T09:35:43.088Z,39.30
2019-04-04T09:38:09.837Z,39.50
2019-04-04T09:40:36.623Z,39.60
2019-04-04T09:43:03.409Z,39.80
2019-04-04T09:45:30.450Z,40.20
2019-04-04T09:47:57.195Z,40.40
2019-04-04T09:50:24.043Z,40.90
2019-04-04T09:52:50.791Z,41.60
2019-04-04T09:55:17.506Z,42.20
2019-04-04T09:57:44.292Z,42.50
2019-04-04T10:00:11.030Z,43.00
2019-04-04T10:02:37.748Z,43.50
2019-04-04T10:05:06.040Z,43.80
2019-04-04T10:07:32.967Z,44.00
2019-04-04T10:09:59.703Z,44.40
2019-04-04T10:12:29.381Z,44.70
2019-04-04T10:14:54.869Z,44.80
2019-04-04T10:17:21.715Z,45.10
2019-04-04T10:19:48.502Z,45.40
2019-04-04T10:22:15.226Z,45.60
2019-04-04T10:24:41.966Z,45.90
2019-04-04T10:27:08.776Z,45.80
2019-04-04T10:29:35.519Z,45.90
2019-04-04T10:32:02.245Z,45.90
2019-04-04T10:34:29.043Z,46.00
2019-04-04T10:36:55.749Z,46.30
2019-04-04T10:39:28.657Z,46.60
2019-04-04T10:41:51.085Z,46.80
2019-04-04T10:44:17.812Z,47.20
2019-04-04T10:46:44.534Z,47.20
2019-04-04T10:49:11.305Z,47.20
2019-04-04T10:51:38.054Z,46.80
2019-04-04T10:54:04.766Z,46.70
2019-04-04T10:56:31.556Z,46.70
2019-04-04T10:58:58.274Z,46.80
2019-04-04T11:01:25.032Z,46.80
2019-04-04T11:03:51.800Z,46.40
2019-04-04T11:06:18.522Z,46.10
2019-04-04T11:08:45.257Z,45.70
2019-04-04T11:11:12.047Z,45.40
2019-04-04T11:13:38.786Z,45.10
2019-04-04T11:16:05.494Z,45.10
2019-04-04T11:18:32.275Z,45.10
2019-04-04T11:20:59.008Z,45.20
2019-04-04T11:23:25.715Z,44.90
2019-04-04T11:25:52.529Z,44.30
2019-04-04T11:28:19.245Z,44.60
2019-04-04T11:30:46.015Z,44.00
2019-04-04T11:33:12.817Z,43.40
2019-04-04T11:35:39.599Z,43.60
2019-04-04T11:38:06.541Z,43.50
2019-04-04T11:40:33.330Z,43.00
2019-04-04T11:43:00.054Z,42.70
2019-04-04T11:45:26.773Z,42.20
2019-04-04T11:47:53.574Z,41.30
2019-04-04T11:50:20.300Z,40.40
2019-04-04T11:52:47.030Z,40.00
2019-04-04T11:55:13.843Z,39.50
2019-04-04T11:57:40.577Z,39.00
2019-04-04T12:00:07.302Z,38.60
2019-04-04T12:02:34.082Z,38.30
2019-04-04T12:05:00.811Z,38.00
2019-04-04T12:07:27.533Z,37.60
2019-04-04T12:10:06.461Z,37.30
2019-04-04T12:12:22.703Z,37.20
2019-04-04T12:14:49.429Z,36.90
2019-04-04T12:17:16.246Z,36.60
2019-04-04T12:19:42.979Z,36.40
2019-04-04T12:22:11.781Z,36.30
2019-04-04T12:24:38.125Z,36.30
2019-04-04T12:27:04.855Z,36.20
2019-04-04T12:29:31.578Z,36.60
2019-04-04T12:31:58.369Z,36.70
2019-04-04T12:34:25.102Z,36.80
2019-04-04T12:36:51.835Z,36.70
2019-04-04T12:39:18.618Z,36.90
2019-04-04T12:41:45.601Z,37.30
2019-04-04T12:44:12.319Z,37.70
2019-04-04T12:46:39.102Z,38.00
2019-04-04T12:49:05.832Z,38.30
2019-04-04T12:51:32.554Z,38.90
2019-04-04T12:53:59.343Z,39.00
2019-04-04T12:56:26.055Z,39.20
2019-04-04T12:58:52.796Z,38.90
2019-04-04T13:01:21.288Z,38.50
2019-04-04T13:03:47.966Z,38.10
2019-04-04T13:06:14.689Z,37.70
2019-04-04T13:08:41.464Z,37.00
2019-04-04T13:11:08.191Z,36.70
2019-04-04T13:13:34.907Z,36.40
2019-04-04T13:16:01.715Z,36.10
2019-04-04T13:18:28.444Z,35.50
2019-04-04T13:20:55.288Z,35.00
2019-04-04T13:23:22.024Z,34.60
2019-04-04T13:25:48.789Z,34.70
2019-04-04T13:28:15.470Z,34.50
2019-04-04T13:30:42.254Z,34.60
2019-04-04T13:33:08.982Z,35.10
2019-04-04T13:35:37.562Z,35.30
2019-04-04T13:38:04.142Z,35.30
2019-04-04T13:40:30.871Z,35.40
2019-04-04T13:42:57.606Z,35.40
2019-04-04T13:45:25.258Z,35.50
2019-04-04T13:47:52.707Z,35.50
2019-04-04T13:50:20.467Z,35.50
2019-04-04T13:52:47.466Z,35.50
2019-04-04T13:55:14.157Z,35.70
2019-04-04T13:57:40.895Z,35.70
2019-04-04T14:00:07.688Z,35.80
2019-04-04T14:02:34.408Z,35.40
2019-04-04T14:05:09.779Z,35.50
2019-04-04T14:07:29.574Z,35.40
2019-04-04T14:09:56.309Z,35.20
2019-04-04T14:12:23.041Z,34.90
2019-04-04T14:14:49.853Z,34.70
2019-04-04T14:17:16.682Z,34.60
2019-04-04T14:19:43.422Z,34.50
2019-04-04T14:22:10.259Z,34.50
2019-04-04T14:24:37.134Z,34.40
2019-04-04T14:27:03.941Z,34.40
2019-04-04T14:29:30.797Z,34.30
2019-04-04T14:31:57.629Z,34.10
2019-04-04T14:34:24.488Z,33.90
2019-04-04T14:36:51.310Z,33.90
2019-04-04T14:39:18.154Z,33.60
2019-04-04T14:41:44.995Z,34.10
2019-04-04T14:44:11.845Z,34.20
2019-04-04T14:46:39.327Z,34.10
2019-04-04T14:49:06.612Z,33.80
2019-04-04T14:51:33.489Z,33.90
2019-04-04T14:54:00.333Z,33.60
2019-04-04T14:56:28.973Z,33.50
2019-04-04T14:58:55.556Z,33.40
2019-04-04T15:01:22.440Z,33.20
2019-04-04T15:03:49.151Z,33.00
2019-04-04T15:06:15.972Z,33.00
2019-04-04T15:08:43.203Z,32.70
2019-04-04T15:11:09.922Z,32.60
2019-04-04T15:13:36.706Z,32.70
2019-04-04T15:16:03.439Z,32.80
2019-04-04T15:18:30.170Z,32.60
2019-04-04T15:20:57.069Z,32.50
2019-04-04T15:23:23.782Z,32.40
2019-04-04T15:25:50.510Z,32.30
2019-04-04T15:28:17.312Z,32.40
2019-04-04T15:30:44.034Z,32.40
2019-04-04T15:33:10.757Z,32.20
2019-04-04T15:35:37.668Z,32.10
2019-04-04T15:38:04.408Z,32.20
2019-04-04T15:40:31.146Z,32.10
2019-04-04T15:42:57.930Z,31.90
2019-04-04T15:45:24.669Z,32.00
2019-04-04T15:47:51.376Z,31.90
2019-04-04T15:50:18.372Z,32.00
2019-04-04T15:52:45.105Z,31.90
2019-04-04T15:55:11.838Z,31.70
2019-04-04T15:57:38.625Z,31.70
2019-04-04T16:00:05.349Z,31.70
2019-04-04T16:02:32.072Z,31.80
2019-04-04T16:04:58.948Z,31.80
2019-04-04T16:07:25.799Z,32.00
2019-04-04T16:09:52.631Z,31.80
2019-04-04T16:12:19.478Z,31.40
2019-04-04T16:14:46.409Z,31.10
2019-04-04T16:17:13.156Z,30.90
2019-04-04T16:19:40.097Z,30.80
2019-04-04T16:22:06.824Z,30.90
2019-04-04T16:24:33.551Z,31.00
2019-04-04T16:27:00.335Z,31.20
2019-04-04T16:29:27.052Z,31.40
2019-04-04T16:31:53.918Z,31.20
2019-04-04T16:34:20.718Z,31.50
2019-04-04T16:36:47.439Z,31.50
2019-04-04T16:39:14.166Z,31.60
2019-04-04T16:41:40.951Z,31.50
2019-04-04T16:44:07.688Z,31.40
2019-04-04T16:46:34.422Z,31.20
2019-04-04T16:49:01.234Z,31.40
2019-04-04T16:51:27.963Z,31.10
2019-04-04T16:53:54.698Z,31.20
2019-04-04T16:56:22.729Z,31.20
2019-04-04T16:58:49.457Z,31.20
2019-04-04T17:01:16.174Z,30.70
2019-04-04T17:03:42.989Z,30.50
2019-04-04T17:06:09.752Z,30.30
2019-04-04T17:08:36.444Z,30.30
2019-04-04T17:11:03.296Z,30.20
2019-04-04T17:13:30.076Z,30.30
2019-04-04T17:15:57.179Z,30.10
2019-04-04T17:18:24.440Z,30.20
2019-04-04T17:20:51.448Z,30.20
2019-04-04T17:23:18.239Z,30.20
2019-04-04T17:25:45.095Z,30.30
2019-04-04T17:28:12.233Z,30.20
2019-04-04T17:30:39.361Z,30.10
2019-04-04T17:33:06.131Z,30.20
2019-04-04T17:35:32.865Z,30.00
2019-04-04T17:37:59.611Z,29.80
2019-04-04T17:40:26.419Z,29.80
2019-04-04T17:42:53.300Z,29.60
2019-04-04T17:45:20.119Z,29.60
2019-04-04T17:47:46.917Z,29.70
2019-04-04T17:50:13.749Z,29.50
2019-04-04T17:52:40.592Z,29.80
2019-04-04T17:55:07.445Z,29.80
2019-04-04T17:57:34.416Z,30.10
2019-04-04T18:00:01.231Z,29.90
2019-04-04T18:02:28.021Z,30.00
2019-04-04T18:04:54.759Z,30.00
2019-04-04T18:07:21.489Z,29.90
2019-04-04T18:09:48.308Z,29.90
2019-04-04T18:12:16.935Z,30.00
2019-04-04T18:14:43.382Z,29.60
2019-04-04T18:17:10.191Z,29.70
2019-04-04T18:19:36.917Z,29.60
2019-04-04T18:22:03.644Z,29.70
2019-04-04T18:24:30.462Z,29.80
2019-04-04T18:26:57.184Z,29.70
2019-04-04T18:29:23.931Z,29.80
2019-04-04T18:31:50.710Z,30.00
2019-04-04T18:34:17.858Z,30.10
2019-04-04T18:36:45.029Z,30.20
2019-04-04T18:39:12.486Z,30.10
2019-04-04T18:41:39.270Z,30.00
2019-04-04T18:44:06.112Z,29.90
2019-04-04T18:46:32.992Z,30.00
2019-04-04T18:48:59.797Z,30.00
2019-04-04T18:51:26.736Z,30.00
2019-04-04T18:53:53.520Z,30.00
2019-04-04T18:56:20.253Z,30.00
2019-04-04T18:58:46.973Z,30.10
2019-04-04T19:01:13.765Z,30.20
2019-04-04T19:03:40.490Z,30.00
2019-04-04T19:06:07.237Z,30.00
2019-04-04T19:08:34.025Z,30.10
2019-04-04T19:11:00.759Z,30.00
2019-04-04T19:13:27.534Z,30.00
2019-04-04T19:15:54.465Z,30.10
2019-04-04T19:18:21.184Z,30.00
2019-04-04T19:20:47.920Z,30.10
2019-04-04T19:23:14.743Z,30.00
2019-04-04T19:25:41.467Z,29.90
2019-04-04T19:28:08.203Z,30.00
2019-04-04T19:30:35.001Z,30.10
2019-04-04T19:33:01.786Z,30.10
2019-04-04T19:35:28.475Z,30.10
2019-04-04T19:38:00.310Z,30.10
2019-04-04T19:40:23.683Z,30.20
2019-04-04T19:42:50.430Z,30.20
2019-04-04T19:45:17.231Z,30.20
2019-04-04T19:47:44.005Z,30.20
2019-04-04T19:50:10.856Z,30.20
2019-04-04T19:52:38.292Z,30.20
2019-04-04T19:55:05.140Z,30.10
2019-04-04T19:57:32.007Z,30.10
2019-04-04T19:59:58.823Z,30.10
2019-04-04T20:02:25.684Z,30.10
2019-04-04T20:04:52.500Z,30.00
2019-04-04T20:07:19.352Z,30.10
2019-04-04T20:09:46.187Z,30.10
2019-04-04T20:12:13.130Z,30.10
2019-04-04T20:14:40.476Z,30.10
2019-04-04T20:17:07.466Z,30.10
2019-04-04T20:19:34.417Z,30.10
2019-04-04T20:22:01.325Z,30.10
2019-04-04T20:24:28.208Z,30.10
2019-04-04T20:26:55.116Z,30.10
2019-04-04T20:29:22.565Z,30.10
2019-04-04T20:31:50.111Z,30.10
2019-04-04T20:34:16.925Z,30.10
2019-04-04T20:36:43.880Z,30.10
2019-04-04T20:39:10.747Z,30.10
2019-04-04T20:41:37.585Z,30.10
2019-04-04T20:44:04.622Z,30.00
2019-04-04T20:46:31.462Z,30.00
2019-04-04T20:48:58.148Z,30.00
2019-04-04T20:51:24.956Z,30.00
2019-04-04T20:53:51.674Z,30.00
2019-04-04T20:56:18.413Z,29.90
2019-04-04T20:58:45.179Z,29.90
2019-04-04T21:01:11.912Z,29.90
2019-04-04T21:03:38.818Z,29.90
2019-04-04T21:06:05.742Z,29.90
2019-04-04T21:08:32.520Z,29.90
2019-04-04T21:10:59.421Z,29.90
2019-04-04T21:13:26.682Z,29.90
2019-04-04T21:15:53.425Z,29.90
2019-04-04T21:18:20.148Z,29.80
2019-04-04T21:20:46.934Z,29.80
2019-04-04T21:23:13.687Z,29.80
2019-04-04T21:25:40.425Z,29.80
2019-04-04T21:28:07.216Z,29.70
2019-04-04T21:30:33.958Z,29.80
2019-04-04T21:33:00.699Z,29.80
2019-04-04T21:35:27.485Z,29.80
2019-04-04T21:37:54.215Z,29.80
2019-04-04T21:40:20.944Z,29.80
2019-04-04T21:42:47.727Z,29.80
2019-04-04T21:45:15.492Z,29.90
2019-04-04T21:47:42.304Z,29.90
2019-04-04T21:50:09.083Z,29.90
2019-04-04T21:52:35.826Z,29.90
2019-04-04T21:55:02.772Z,30.00
2019-04-04T21:57:29.809Z,29.90
2019-04-04T21:59:56.466Z,30.00
2019-04-04T22:02:23.308Z,29.90
2019-04-04T22:04:50.380Z,29.90
2019-04-04T22:07:17.259Z,29.90
2019-04-04T22:09:43.990Z,29.90
2019-04-04T22:12:10.778Z,29.90
2019-04-04T22:14:37.501Z,29.90
2019-04-04T22:17:04.226Z,29.80
2019-04-04T22:19:31.018Z,29.90
2019-04-04T22:21:57.774Z,29.80
2019-04-04T22:24:24.506Z,29.80
2019-04-04T22:26:51.290Z,29.80
2019-04-04T22:29:18.006Z,29.80
2019-04-04T22:31:44.857Z,29.80
2019-04-04T22:34:11.683Z,29.80
2019-04-04T22:36:38.541Z,29.80
2019-04-04T22:39:05.368Z,29.80
2019-04-04T22:41:33.008Z,29.70
2019-04-04T22:44:03.583Z,29.70
2019-04-04T22:46:28.226Z,29.70
2019-04-04T22:48:55.063Z,29.70
2019-04-04T22:51:21.798Z,29.70
2019-04-04T22:53:48.517Z,29.70
2019-04-04T22:56:15.318Z,29.70
2019-04-04T22:58:42.048Z,29.70
2019-04-04T23:01:08.830Z,29.70
2019-04-04T23:03:35.581Z,29.60
2019-04-04T23:06:02.318Z,29.60
2019-04-04T23:08:29.046Z,29.60
2019-04-04T23:10:55.856Z,29.60
2019-04-04T23:13:22.571Z,29.60
2019-04-04T23:15:49.298Z,29.60
2019-04-04T23:18:16.080Z,29.60
2019-04-04T23:20:42.816Z,29.60
2019-04-04T23:23:09.550Z,29.60
2019-04-04T23:25:36.335Z,29.60
2019-04-04T23:28:03.230Z,29.60
2019-04-04T23:30:30.020Z,29.60
2019-04-04T23:32:56.819Z,29.60
2019-04-04T23:35:23.571Z,29.60
2019-04-04T23:37:50.305Z,29.60
2019-04-04T23:40:17.105Z,29.60
2019-04-04T23:42:43.843Z,29.50
2019-04-04T23:45:10.582Z,29.60
2019-04-04T23:47:42.994Z,29.50
2019-04-04T23:50:05.795Z,29.50
2019-04-04T23:52:32.520Z,29.50
2019-04-04T23:54:59.307Z,29.50
2019-04-04T23:57:26.042Z,29.40
2019-04-04T23:59:52.800Z,29.40
